KSWF

Stewart International Airport

New York, New York, USA
METAR KSWF 241445Z 24006KT 8SM SCT010 BKN020 24/20 A2983 RMK HAZY
Observed Flight Rules
Jun-24 @ 14:45 UTC (19 minutes ago) Marginal Visual Flight Rules
Wind Visibility Clouds
240° at 6 knots 8 miles
  • Scattered at 1,000' AGL
  • Broken at 2,000' AGL
Temperatures Readings
Current 24°C / 75°F
Dewpoint 20°C / 68°F
Humidity 78%
Altimeter 29.83" Hg
Pressure 1010 hPa
Elevation 150
METAR KSWF 241445Z 24006KT 8SM SCT010 BKN020 24/20 A2983 RMK HAZY
Observed Flight Rules
Jun-24 @ 14:45 UTC
(19 minutes ago)
MVFR
Wind Visibility
240° at 6 knots 8 miles
Clouds
  • Scattered at 1,000' AGL
  • Broken at 2,000' AGL
Temperature Dewpoint
24°C / 75°F 20°C / 68°F
Humidity Altimeter Pressure
78% 29.83" Hg 1010 hPa